sensor_id;sensor_type;location;lat;lon;timestamp;temperature;humidity
21944;DHT22;11136;48.778;9.126;2023-03-05T00:00:15;5.10;93.70
21944;DHT22;11136;48.778;9.126;2023-03-05T00:02:41;5.10;93.60
21944;DHT22;11136;48.778;9.126;2023-03-05T00:05:07;5.10;93.70
21944;DHT22;11136;48.778;9.126;2023-03-05T00:07:33;5.10;93.70
21944;DHT22;11136;48.778;9.126;2023-03-05T00:10:00;5.10;93.70
21944;DHT22;11136;48.778;9.126;2023-03-05T00:12:25;5.10;93.70
21944;DHT22;11136;48.778;9.126;2023-03-05T00:14:51;5.10;93.70
21944;DHT22;11136;48.778;9.126;2023-03-05T00:17:17;5.10;93.70
21944;DHT22;11136;48.778;9.126;2023-03-05T00:19:42;5.10;93.70
21944;DHT22;11136;48.778;9.126;2023-03-05T00:22:08;5.10;93.80
21944;DHT22;11136;48.778;9.126;2023-03-05T00:24:34;5.10;93.80
21944;DHT22;11136;48.778;9.126;2023-03-05T00:26:59;5.20;93.90
21944;DHT22;11136;48.778;9.126;2023-03-05T00:29:25;5.10;93.90
21944;DHT22;11136;48.778;9.126;2023-03-05T00:31:52;5.10;93.90
21944;DHT22;11136;48.778;9.126;2023-03-05T00:34:18;5.20;93.90
21944;DHT22;11136;48.778;9.126;2023-03-05T00:36:46;5.20;94.00
21944;DHT22;11136;48.778;9.126;2023-03-05T00:39:13;5.20;94.00
21944;DHT22;11136;48.778;9.126;2023-03-05T00:41:39;5.20;94.00
21944;DHT22;11136;48.778;9.126;2023-03-05T00:44:05;5.20;94.00
21944;DHT22;11136;48.778;9.126;2023-03-05T00:46:31;5.20;94.10
21944;DHT22;11136;48.778;9.126;2023-03-05T00:48:56;5.20;94.10
21944;DHT22;11136;48.778;9.126;2023-03-05T00:51:23;5.20;94.10
21944;DHT22;11136;48.778;9.126;2023-03-05T00:53:49;5.20;94.10
21944;DHT22;11136;48.778;9.126;2023-03-05T00:56:15;5.20;94.10
21944;DHT22;11136;48.778;9.126;2023-03-05T00:58:41;5.20;94.10
21944;DHT22;11136;48.778;9.126;2023-03-05T01:01:06;5.20;94.20
21944;DHT22;11136;48.778;9.126;2023-03-05T01:03:33;5.20;94.20
21944;DHT22;11136;48.778;9.126;2023-03-05T01:06:00;5.20;94.20
21944;DHT22;11136;48.778;9.126;2023-03-05T01:08:26;5.20;94.30
21944;DHT22;11136;48.778;9.126;2023-03-05T01:10:52;5.20;94.30
21944;DHT22;11136;48.778;9.126;2023-03-05T01:13:18;5.20;94.30
21944;DHT22;11136;48.778;9.126;2023-03-05T01:15:44;5.30;94.30
21944;DHT22;11136;48.778;9.126;2023-03-05T01:18:12;5.20;94.30
21944;DHT22;11136;48.778;9.126;2023-03-05T01:20:37;5.20;94.40
21944;DHT22;11136;48.778;9.126;2023-03-05T01:23:03;5.20;94.40
21944;DHT22;11136;48.778;9.126;2023-03-05T01:25:28;5.20;94.40
21944;DHT22;11136;48.778;9.126;2023-03-05T01:27:55;5.40;94.50
21944;DHT22;11136;48.778;9.126;2023-03-05T01:30:20;5.20;94.40
21944;DHT22;11136;48.778;9.126;2023-03-05T01:32:46;5.30;94.40
21944;DHT22;11136;48.778;9.126;2023-03-05T01:35:20;5.20;94.40
21944;DHT22;11136;48.778;9.126;2023-03-05T01:37:47;5.30;94.50
21944;DHT22;11136;48.778;9.126;2023-03-05T01:40:15;5.20;94.40
21944;DHT22;11136;48.778;9.126;2023-03-05T01:42:53;5.20;94.50
21944;DHT22;11136;48.778;9.126;2023-03-05T01:45:19;5.30;94.60
21944;DHT22;11136;48.778;9.126;2023-03-05T01:47:45;5.30;94.60
21944;DHT22;11136;48.778;9.126;2023-03-05T01:50:16;5.30;94.60
21944;DHT22;11136;48.778;9.126;2023-03-05T01:52:47;5.30;94.60
21944;DHT22;11136;48.778;9.126;2023-03-05T01:55:15;5.30;94.60
21944;DHT22;11136;48.778;9.126;2023-03-05T01:57:58;5.20;94.50
21944;DHT22;11136;48.778;9.126;2023-03-05T02:00:29;5.30;94.50
21944;DHT22;11136;48.778;9.126;2023-03-05T02:02:56;5.30;94.60
21944;DHT22;11136;48.778;9.126;2023-03-05T02:05:33;5.30;94.70
21944;DHT22;11136;48.778;9.126;2023-03-05T02:08:02;5.30;94.70
21944;DHT22;11136;48.778;9.126;2023-03-05T02:10:33;5.30;94.70
21944;DHT22;11136;48.778;9.126;2023-03-05T02:13:02;5.30;94.70
21944;DHT22;11136;48.778;9.126;2023-03-05T02:15:29;5.20;94.70
21944;DHT22;11136;48.778;9.126;2023-03-05T02:17:56;5.20;94.80
21944;DHT22;11136;48.778;9.126;2023-03-05T02:20:27;5.20;94.80
21944;DHT22;11136;48.778;9.126;2023-03-05T02:22:53;5.20;94.80
21944;DHT22;11136;48.778;9.126;2023-03-05T02:25:22;5.20;94.80
21944;DHT22;11136;48.778;9.126;2023-03-05T02:28:11;5.40;94.90
21944;DHT22;11136;48.778;9.126;2023-03-05T02:30:39;5.20;95.00
21944;DHT22;11136;48.778;9.126;2023-03-05T02:33:05;5.20;95.00
21944;DHT22;11136;48.778;9.126;2023-03-05T02:35:30;5.20;95.00
21944;DHT22;11136;48.778;9.126;2023-03-05T02:37:56;5.20;95.10
21944;DHT22;11136;48.778;9.126;2023-03-05T02:40:22;5.20;95.20
21944;DHT22;11136;48.778;9.126;2023-03-05T02:42:48;5.20;95.30
21944;DHT22;11136;48.778;9.126;2023-03-05T02:45:14;5.20;95.30
21944;DHT22;11136;48.778;9.126;2023-03-05T02:47:40;5.20;95.40
21944;DHT22;11136;48.778;9.126;2023-03-05T02:50:06;5.20;95.40
21944;DHT22;11136;48.778;9.126;2023-03-05T02:52:32;5.20;95.40
21944;DHT22;11136;48.778;9.126;2023-03-05T02:54:58;5.20;95.40
21944;DHT22;11136;48.778;9.126;2023-03-05T02:57:24;5.20;95.40
21944;DHT22;11136;48.778;9.126;2023-03-05T02:59:50;5.20;95.50
21944;DHT22;11136;48.778;9.126;2023-03-05T03:02:16;5.10;95.50
21944;DHT22;11136;48.778;9.126;2023-03-05T03:04:42;5.10;95.60
21944;DHT22;11136;48.778;9.126;2023-03-05T03:07:08;5.10;95.70
21944;DHT22;11136;48.778;9.126;2023-03-05T03:09:34;5.10;95.80
21944;DHT22;11136;48.778;9.126;2023-03-05T03:12:01;5.10;95.80
21944;DHT22;11136;48.778;9.126;2023-03-05T03:14:30;5.10;95.90
21944;DHT22;11136;48.778;9.126;2023-03-05T03:16:57;5.10;96.00
21944;DHT22;11136;48.778;9.126;2023-03-05T03:19:23;5.10;96.10
21944;DHT22;11136;48.778;9.126;2023-03-05T03:21:49;5.10;96.20
21944;DHT22;11136;48.778;9.126;2023-03-05T03:24:14;5.10;96.30
21944;DHT22;11136;48.778;9.126;2023-03-05T03:26:40;5.10;96.40
21944;DHT22;11136;48.778;9.126;2023-03-05T03:29:05;5.10;96.40
21944;DHT22;11136;48.778;9.126;2023-03-05T03:31:31;5.10;96.50
21944;DHT22;11136;48.778;9.126;2023-03-05T03:33:56;5.10;96.60
21944;DHT22;11136;48.778;9.126;2023-03-05T03:36:22;5.20;96.70
21944;DHT22;11136;48.778;9.126;2023-03-05T03:38:48;5.10;96.80
21944;DHT22;11136;48.778;9.126;2023-03-05T03:41:13;5.20;96.90
21944;DHT22;11136;48.778;9.126;2023-03-05T03:43:39;5.20;97.00
21944;DHT22;11136;48.778;9.126;2023-03-05T03:46:05;5.10;97.00
21944;DHT22;11136;48.778;9.126;2023-03-05T03:48:31;5.10;97.00
21944;DHT22;11136;48.778;9.126;2023-03-05T03:50:57;5.10;97.10
21944;DHT22;11136;48.778;9.126;2023-03-05T03:53:22;5.10;97.20
21944;DHT22;11136;48.778;9.126;2023-03-05T03:55:48;5.10;97.20
21944;DHT22;11136;48.778;9.126;2023-03-05T03:58:13;5.10;97.20
21944;DHT22;11136;48.778;9.126;2023-03-05T04:00:40;5.10;97.20
21944;DHT22;11136;48.778;9.126;2023-03-05T04:03:06;5.10;97.60
21944;DHT22;11136;48.778;9.126;2023-03-05T04:05:32;5.10;97.30
21944;DHT22;11136;48.778;9.126;2023-03-05T04:07:58;5.30;97.50
21944;DHT22;11136;48.778;9.126;2023-03-05T04:10:24;5.00;97.50
21944;DHT22;11136;48.778;9.126;2023-03-05T04:12:50;5.00;97.50
21944;DHT22;11136;48.778;9.126;2023-03-05T04:15:16;5.40;97.60
21944;DHT22;11136;48.778;9.126;2023-03-05T04:17:42;5.00;97.50
21944;DHT22;11136;48.778;9.126;2023-03-05T04:20:08;5.00;97.50
21944;DHT22;11136;48.778;9.126;2023-03-05T04:22:35;5.00;97.50
21944;DHT22;11136;48.778;9.126;2023-03-05T04:25:03;4.90;97.50
21944;DHT22;11136;48.778;9.126;2023-03-05T04:27:32;5.00;97.60
21944;DHT22;11136;48.778;9.126;2023-03-05T04:30:02;5.00;97.60
21944;DHT22;11136;48.778;9.126;2023-03-05T04:32:28;4.90;97.50
21944;DHT22;11136;48.778;9.126;2023-03-05T04:34:57;4.90;97.40
21944;DHT22;11136;48.778;9.126;2023-03-05T04:37:24;4.90;97.50
21944;DHT22;11136;48.778;9.126;2023-03-05T04:39:51;4.90;97.60
21944;DHT22;11136;48.778;9.126;2023-03-05T04:42:17;4.90;97.70
21944;DHT22;11136;48.778;9.126;2023-03-05T04:44:45;4.90;97.70
21944;DHT22;11136;48.778;9.126;2023-03-05T04:47:11;4.90;97.80
21944;DHT22;11136;48.778;9.126;2023-03-05T04:49:37;4.90;97.70
21944;DHT22;11136;48.778;9.126;2023-03-05T04:52:02;4.90;97.80
21944;DHT22;11136;48.778;9.126;2023-03-05T04:54:28;5.10;97.80
21944;DHT22;11136;48.778;9.126;2023-03-05T04:56:53;4.90;97.80
21944;DHT22;11136;48.778;9.126;2023-03-05T04:59:19;4.90;97.80
21944;DHT22;11136;48.778;9.126;2023-03-05T05:01:45;4.90;97.80
21944;DHT22;11136;48.778;9.126;2023-03-05T05:04:10;4.90;97.90
21944;DHT22;11136;48.778;9.126;2023-03-05T05:06:36;4.90;97.90
21944;DHT22;11136;48.778;9.126;2023-03-05T05:09:01;4.90;97.90
21944;DHT22;11136;48.778;9.126;2023-03-05T05:11:27;4.90;98.00
21944;DHT22;11136;48.778;9.126;2023-03-05T05:13:52;4.90;98.00
21944;DHT22;11136;48.778;9.126;2023-03-05T05:16:18;4.90;98.00
21944;DHT22;11136;48.778;9.126;2023-03-05T05:18:44;4.90;98.00
21944;DHT22;11136;48.778;9.126;2023-03-05T05:21:11;4.90;98.00
21944;DHT22;11136;48.778;9.126;2023-03-05T05:23:38;4.90;98.00
21944;DHT22;11136;48.778;9.126;2023-03-05T05:26:06;4.90;98.10
21944;DHT22;11136;48.778;9.126;2023-03-05T05:28:33;4.90;98.20
21944;DHT22;11136;48.778;9.126;2023-03-05T05:30:59;5.00;98.20
21944;DHT22;11136;48.778;9.126;2023-03-05T05:33:26;5.00;98.20
21944;DHT22;11136;48.778;9.126;2023-03-05T05:35:51;5.00;98.20
21944;DHT22;11136;48.778;9.126;2023-03-05T05:38:17;5.00;98.20
21944;DHT22;11136;48.778;9.126;2023-03-05T05:40:43;5.00;98.20
21944;DHT22;11136;48.778;9.126;2023-03-05T05:43:09;5.00;98.20
21944;DHT22;11136;48.778;9.126;2023-03-05T05:45:37;4.90;98.20
21944;DHT22;11136;48.778;9.126;2023-03-05T05:48:02;4.90;98.20
21944;DHT22;11136;48.778;9.126;2023-03-05T05:50:28;4.90;98.30
21944;DHT22;11136;48.778;9.126;2023-03-05T05:52:54;4.90;98.30
21944;DHT22;11136;48.778;9.126;2023-03-05T05:55:19;4.90;98.30
21944;DHT22;11136;48.778;9.126;2023-03-05T05:57:45;4.90;98.30
21944;DHT22;11136;48.778;9.126;2023-03-05T06:00:12;4.90;98.30
21944;DHT22;11136;48.778;9.126;2023-03-05T06:02:39;4.90;98.30
21944;DHT22;11136;48.778;9.126;2023-03-05T06:05:05;4.90;98.40
21944;DHT22;11136;48.778;9.126;2023-03-05T06:07:33;4.90;98.30
21944;DHT22;11136;48.778;9.126;2023-03-05T06:09:59;4.90;98.40
21944;DHT22;11136;48.778;9.126;2023-03-05T06:12:24;5.00;98.50
21944;DHT22;11136;48.778;9.126;2023-03-05T06:14:50;5.10;98.50
21944;DHT22;11136;48.778;9.126;2023-03-05T06:17:15;5.00;98.50
21944;DHT22;11136;48.778;9.126;2023-03-05T06:19:41;4.90;98.40
21944;DHT22;11136;48.778;9.126;2023-03-05T06:22:07;4.90;98.40
21944;DHT22;11136;48.778;9.126;2023-03-05T06:24:33;4.90;98.50
21944;DHT22;11136;48.778;9.126;2023-03-05T06:26:58;5.00;98.50
21944;DHT22;11136;48.778;9.126;2023-03-05T06:29:24;5.00;98.50
21944;DHT22;11136;48.778;9.126;2023-03-05T06:31:50;5.00;98.50
21944;DHT22;11136;48.778;9.126;2023-03-05T06:34:15;5.10;98.60
21944;DHT22;11136;48.778;9.126;2023-03-05T06:36:41;5.00;98.50
21944;DHT22;11136;48.778;9.126;2023-03-05T06:39:08;5.00;98.50
21944;DHT22;11136;48.778;9.126;2023-03-05T06:41:34;5.00;98.50
21944;DHT22;11136;48.778;9.126;2023-03-05T06:44:00;5.00;98.50
21944;DHT22;11136;48.778;9.126;2023-03-05T06:46:32;5.00;98.60
21944;DHT22;11136;48.778;9.126;2023-03-05T06:49:00;5.00;98.60
21944;DHT22;11136;48.778;9.126;2023-03-05T06:51:29;5.10;98.60
21944;DHT22;11136;48.778;9.126;2023-03-05T06:53:58;5.10;98.70
21944;DHT22;11136;48.778;9.126;2023-03-05T06:56:24;5.10;98.70
21944;DHT22;11136;48.778;9.126;2023-03-05T06:58:50;5.10;98.60
21944;DHT22;11136;48.778;9.126;2023-03-05T07:01:16;5.10;98.60
21944;DHT22;11136;48.778;9.126;2023-03-05T07:03:43;5.10;98.60
21944;DHT22;11136;48.778;9.126;2023-03-05T07:06:13;5.10;98.60
21944;DHT22;11136;48.778;9.126;2023-03-05T07:08:40;5.10;98.60
21944;DHT22;11136;48.778;9.126;2023-03-05T07:11:32;5.10;98.60
21944;DHT22;11136;48.778;9.126;2023-03-05T07:13:59;5.10;98.70
21944;DHT22;11136;48.778;9.126;2023-03-05T07:16:30;5.10;98.60
21944;DHT22;11136;48.778;9.126;2023-03-05T07:18:56;5.10;98.60
21944;DHT22;11136;48.778;9.126;2023-03-05T07:21:24;5.50;99.00
21944;DHT22;11136;48.778;9.126;2023-03-05T07:23:57;5.20;98.50
21944;DHT22;11136;48.778;9.126;2023-03-05T07:26:24;5.10;98.50
21944;DHT22;11136;48.778;9.126;2023-03-05T07:28:50;5.20;98.60
21944;DHT22;11136;48.778;9.126;2023-03-05T07:31:18;5.10;98.60
21944;DHT22;11136;48.778;9.126;2023-03-05T07:33:48;5.20;98.70
21944;DHT22;11136;48.778;9.126;2023-03-05T07:36:15;5.20;98.70
21944;DHT22;11136;48.778;9.126;2023-03-05T07:38:41;5.20;98.70
21944;DHT22;11136;48.778;9.126;2023-03-05T07:41:09;5.20;98.70
21944;DHT22;11136;48.778;9.126;2023-03-05T07:43:35;5.30;98.80
21944;DHT22;11136;48.778;9.126;2023-03-05T07:46:06;5.30;98.80
21944;DHT22;11136;48.778;9.126;2023-03-05T07:48:32;5.30;98.70
21944;DHT22;11136;48.778;9.126;2023-03-05T07:51:02;5.30;98.70
21944;DHT22;11136;48.778;9.126;2023-03-05T07:53:29;5.30;98.70
21944;DHT22;11136;48.778;9.126;2023-03-05T07:55:54;5.40;98.70
21944;DHT22;11136;48.778;9.126;2023-03-05T07:58:20;5.40;98.70
21944;DHT22;11136;48.778;9.126;2023-03-05T08:00:45;5.40;98.70
21944;DHT22;11136;48.778;9.126;2023-03-05T08:03:11;5.40;98.70
21944;DHT22;11136;48.778;9.126;2023-03-05T08:05:40;5.40;98.70
21944;DHT22;11136;48.778;9.126;2023-03-05T08:08:07;5.40;98.70
21944;DHT22;11136;48.778;9.126;2023-03-05T08:10:34;5.50;98.70
21944;DHT22;11136;48.778;9.126;2023-03-05T08:12:59;5.50;98.70
21944;DHT22;11136;48.778;9.126;2023-03-05T08:15:25;5.50;98.60
21944;DHT22;11136;48.778;9.126;2023-03-05T08:17:51;5.60;98.60
21944;DHT22;11136;48.778;9.126;2023-03-05T08:20:18;5.60;98.60
21944;DHT22;11136;48.778;9.126;2023-03-05T08:22:45;5.60;98.50
21944;DHT22;11136;48.778;9.126;2023-03-05T08:25:11;5.60;98.50
21944;DHT22;11136;48.778;9.126;2023-03-05T08:27:38;5.60;98.50
21944;DHT22;11136;48.778;9.126;2023-03-05T08:30:05;5.60;98.50
21944;DHT22;11136;48.778;9.126;2023-03-05T08:32:31;5.70;98.50
21944;DHT22;11136;48.778;9.126;2023-03-05T08:34:57;5.70;98.50
21944;DHT22;11136;48.778;9.126;2023-03-05T08:37:23;5.70;98.50
21944;DHT22;11136;48.778;9.126;2023-03-05T08:39:49;5.80;98.50
21944;DHT22;11136;48.778;9.126;2023-03-05T08:42:14;5.80;98.50
21944;DHT22;11136;48.778;9.126;2023-03-05T08:44:40;5.80;98.40
21944;DHT22;11136;48.778;9.126;2023-03-05T08:47:06;5.90;98.40
21944;DHT22;11136;48.778;9.126;2023-03-05T08:49:31;5.90;98.30
21944;DHT22;11136;48.778;9.126;2023-03-05T08:51:57;5.90;98.30
21944;DHT22;11136;48.778;9.126;2023-03-05T08:54:23;6.00;98.30
21944;DHT22;11136;48.778;9.126;2023-03-05T08:56:48;6.00;98.20
21944;DHT22;11136;48.778;9.126;2023-03-05T08:59:14;6.00;98.10
21944;DHT22;11136;48.778;9.126;2023-03-05T09:01:40;6.00;98.10
21944;DHT22;11136;48.778;9.126;2023-03-05T09:04:06;6.10;98.20
21944;DHT22;11136;48.778;9.126;2023-03-05T09:06:31;6.10;98.10
21944;DHT22;11136;48.778;9.126;2023-03-05T09:08:58;6.10;98.10
21944;DHT22;11136;48.778;9.126;2023-03-05T09:11:24;6.20;98.00
21944;DHT22;11136;48.778;9.126;2023-03-05T09:13:49;6.20;98.00
21944;DHT22;11136;48.778;9.126;2023-03-05T09:16:17;6.20;97.90
21944;DHT22;11136;48.778;9.126;2023-03-05T09:18:43;6.20;97.80
21944;DHT22;11136;48.778;9.126;2023-03-05T09:21:14;6.30;97.70
21944;DHT22;11136;48.778;9.126;2023-03-05T09:23:41;6.30;97.70
21944;DHT22;11136;48.778;9.126;2023-03-05T09:26:08;6.30;97.60
21944;DHT22;11136;48.778;9.126;2023-03-05T09:28:35;6.30;97.60
21944;DHT22;11136;48.778;9.126;2023-03-05T09:31:02;6.30;97.60
21944;DHT22;11136;48.778;9.126;2023-03-05T09:33:30;6.40;97.60
21944;DHT22;11136;48.778;9.126;2023-03-05T09:35:56;6.40;97.50
21944;DHT22;11136;48.778;9.126;2023-03-05T09:38:22;6.40;97.50
21944;DHT22;11136;48.778;9.126;2023-03-05T09:40:52;6.40;97.40
21944;DHT22;11136;48.778;9.126;2023-03-05T09:48:41;6.50;97.20
21944;DHT22;11136;48.778;9.126;2023-03-05T09:51:13;6.60;97.20
21944;DHT22;11136;48.778;9.126;2023-03-05T09:54:05;6.50;97.10
21944;DHT22;11136;48.778;9.126;2023-03-05T09:56:38;6.50;97.00
21944;DHT22;11136;48.778;9.126;2023-03-05T09:59:34;6.50;97.00
21944;DHT22;11136;48.778;9.126;2023-03-05T10:02:24;6.60;97.10
21944;DHT22;11136;48.778;9.126;2023-03-05T10:07:42;6.70;97.10
21944;DHT22;11136;48.778;9.126;2023-03-05T10:10:24;6.70;97.00
21944;DHT22;11136;48.778;9.126;2023-03-05T10:12:54;6.80;96.90
21944;DHT22;11136;48.778;9.126;2023-03-05T10:20:55;6.80;96.60
21944;DHT22;11136;48.778;9.126;2023-03-05T10:23:32;6.80;96.50
21944;DHT22;11136;48.778;9.126;2023-03-05T10:26:19;6.90;96.60
21944;DHT22;11136;48.778;9.126;2023-03-05T10:29:00;6.90;96.40
21944;DHT22;11136;48.778;9.126;2023-03-05T10:31:49;6.90;96.40
21944;DHT22;11136;48.778;9.126;2023-03-05T10:40:19;7.00;96.20
21944;DHT22;11136;48.778;9.126;2023-03-05T10:45:40;7.10;96.10
21944;DHT22;11136;48.778;9.126;2023-03-05T10:48:20;7.00;95.90
21944;DHT22;11136;48.778;9.126;2023-03-05T10:50:52;7.00;95.80
21944;DHT22;11136;48.778;9.126;2023-03-05T10:56:10;7.00;95.80
21944;DHT22;11136;48.778;9.126;2023-03-05T10:58:36;7.00;95.70
21944;DHT22;11136;48.778;9.126;2023-03-05T11:04:03;7.10;95.60
21944;DHT22;11136;48.778;9.126;2023-03-05T11:06:42;7.10;95.60
21944;DHT22;11136;48.778;9.126;2023-03-05T11:09:19;7.10;95.60
21944;DHT22;11136;48.778;9.126;2023-03-05T11:12:17;7.10;95.40
21944;DHT22;11136;48.778;9.126;2023-03-05T11:15:18;7.10;95.40
21944;DHT22;11136;48.778;9.126;2023-03-05T11:17:45;7.10;95.30
21944;DHT22;11136;48.778;9.126;2023-03-05T11:20:22;7.00;95.30
21944;DHT22;11136;48.778;9.126;2023-03-05T11:25:28;7.10;95.30
21944;DHT22;11136;48.778;9.126;2023-03-05T11:27:55;7.00;95.30
21944;DHT22;11136;48.778;9.126;2023-03-05T11:30:31;7.00;95.30
21944;DHT22;11136;48.778;9.126;2023-03-05T11:33:21;7.00;95.20
21944;DHT22;11136;48.778;9.126;2023-03-05T11:35:49;6.90;95.20
21944;DHT22;11136;48.778;9.126;2023-03-05T11:38:20;6.90;95.20
21944;DHT22;11136;48.778;9.126;2023-03-05T11:40:49;6.80;95.20
21944;DHT22;11136;48.778;9.126;2023-03-05T11:43:18;6.80;95.30
21944;DHT22;11136;48.778;9.126;2023-03-05T11:45:46;6.80;95.30
21944;DHT22;11136;48.778;9.126;2023-03-05T11:48:24;6.70;95.30
21944;DHT22;11136;48.778;9.126;2023-03-05T11:50:59;6.70;95.30
21944;DHT22;11136;48.778;9.126;2023-03-05T11:53:27;6.70;95.30
21944;DHT22;11136;48.778;9.126;2023-03-05T11:59:04;6.70;95.40
21944;DHT22;11136;48.778;9.126;2023-03-05T12:01:31;6.70;95.50
21944;DHT22;11136;48.778;9.126;2023-03-05T12:04:00;6.70;95.50
21944;DHT22;11136;48.778;9.126;2023-03-05T12:06:33;6.70;95.40
21944;DHT22;11136;48.778;9.126;2023-03-05T12:09:05;6.80;95.40
21944;DHT22;11136;48.778;9.126;2023-03-05T12:11:32;6.80;95.40
21944;DHT22;11136;48.778;9.126;2023-03-05T12:14:08;6.70;95.30
21944;DHT22;11136;48.778;9.126;2023-03-05T12:16:39;6.80;95.30
21944;DHT22;11136;48.778;9.126;2023-03-05T12:21:49;6.80;95.20
21944;DHT22;11136;48.778;9.126;2023-03-05T12:31:58;6.80;94.80
21944;DHT22;11136;48.778;9.126;2023-03-05T12:37:14;6.80;94.80
21944;DHT22;11136;48.778;9.126;2023-03-05T12:40:31;6.80;94.80
21944;DHT22;11136;48.778;9.126;2023-03-05T12:43:04;6.80;94.70
21944;DHT22;11136;48.778;9.126;2023-03-05T12:45:36;6.90;94.70
21944;DHT22;11136;48.778;9.126;2023-03-05T12:52:59;6.90;94.60
21944;DHT22;11136;48.778;9.126;2023-03-05T12:55:36;6.90;94.50
21944;DHT22;11136;48.778;9.126;2023-03-05T12:58:16;7.00;94.50
21944;DHT22;11136;48.778;9.126;2023-03-05T13:03:59;7.00;94.40
21944;DHT22;11136;48.778;9.126;2023-03-05T13:06:33;7.00;94.40
21944;DHT22;11136;48.778;9.126;2023-03-05T13:09:02;7.00;94.30
21944;DHT22;11136;48.778;9.126;2023-03-05T13:11:33;7.00;94.20
21944;DHT22;11136;48.778;9.126;2023-03-05T13:14:01;7.00;94.10
21944;DHT22;11136;48.778;9.126;2023-03-05T13:16:35;7.00;94.10
21944;DHT22;11136;48.778;9.126;2023-03-05T13:19:02;6.90;94.00
21944;DHT22;11136;48.778;9.126;2023-03-05T13:21:32;6.90;93.90
21944;DHT22;11136;48.778;9.126;2023-03-05T13:23:59;6.90;94.00
21944;DHT22;11136;48.778;9.126;2023-03-05T13:26:28;6.90;94.00
21944;DHT22;11136;48.778;9.126;2023-03-05T13:29:13;6.90;94.10
21944;DHT22;11136;48.778;9.126;2023-03-05T13:34:33;7.00;94.10
21944;DHT22;11136;48.778;9.126;2023-03-05T13:37:03;7.00;94.10
21944;DHT22;11136;48.778;9.126;2023-03-05T13:39:39;7.00;94.10
21944;DHT22;11136;48.778;9.126;2023-03-05T13:42:16;7.00;94.10
21944;DHT22;11136;48.778;9.126;2023-03-05T13:44:43;7.00;94.00
21944;DHT22;11136;48.778;9.126;2023-03-05T13:47:20;7.10;94.00
21944;DHT22;11136;48.778;9.126;2023-03-05T13:49:46;7.00;93.90
21944;DHT22;11136;48.778;9.126;2023-03-05T13:52:22;7.10;93.90
21944;DHT22;11136;48.778;9.126;2023-03-05T13:54:48;7.00;93.90
21944;DHT22;11136;48.778;9.126;2023-03-05T13:57:37;7.00;93.90
21944;DHT22;11136;48.778;9.126;2023-03-05T14:00:07;7.10;93.90
21944;DHT22;11136;48.778;9.126;2023-03-05T14:02:49;7.10;93.90
21944;DHT22;11136;48.778;9.126;2023-03-05T14:05:14;7.10;93.90
21944;DHT22;11136;48.778;9.126;2023-03-05T14:07:40;7.20;93.80
21944;DHT22;11136;48.778;9.126;2023-03-05T14:12:51;7.10;93.60
21944;DHT22;11136;48.778;9.126;2023-03-05T14:15:34;7.10;93.70
21944;DHT22;11136;48.778;9.126;2023-03-05T14:23:43;7.10;93.50
21944;DHT22;11136;48.778;9.126;2023-03-05T14:26:27;7.10;93.50
21944;DHT22;11136;48.778;9.126;2023-03-05T14:29:03;7.10;93.40
21944;DHT22;11136;48.778;9.126;2023-03-05T14:32:06;7.00;93.30
21944;DHT22;11136;48.778;9.126;2023-03-05T14:34:36;7.00;93.30
21944;DHT22;11136;48.778;9.126;2023-03-05T14:37:05;7.00;93.40
21944;DHT22;11136;48.778;9.126;2023-03-05T14:39:59;7.00;93.40
21944;DHT22;11136;48.778;9.126;2023-03-05T14:42:48;7.00;93.40
21944;DHT22;11136;48.778;9.126;2023-03-05T14:45:17;6.90;93.30
21944;DHT22;11136;48.778;9.126;2023-03-05T14:47:44;6.90;93.30
21944;DHT22;11136;48.778;9.126;2023-03-05T14:50:27;6.90;93.40
21944;DHT22;11136;48.778;9.126;2023-03-05T14:53:14;6.90;93.40
21944;DHT22;11136;48.778;9.126;2023-03-05T14:55:41;6.80;93.30
21944;DHT22;11136;48.778;9.126;2023-03-05T14:58:14;6.80;93.30
21944;DHT22;11136;48.778;9.126;2023-03-05T15:00:41;6.80;93.30
21944;DHT22;11136;48.778;9.126;2023-03-05T15:03:14;6.80;93.40
21944;DHT22;11136;48.778;9.126;2023-03-05T15:05:41;6.80;93.40
21944;DHT22;11136;48.778;9.126;2023-03-05T15:08:22;6.80;93.70
21944;DHT22;11136;48.778;9.126;2023-03-05T15:10:49;6.80;93.40
21944;DHT22;11136;48.778;9.126;2023-03-05T15:13:15;6.80;93.40
21944;DHT22;11136;48.778;9.126;2023-03-05T15:15:42;6.70;93.40
21944;DHT22;11136;48.778;9.126;2023-03-05T15:18:12;6.70;93.50
21944;DHT22;11136;48.778;9.126;2023-03-05T15:20:38;6.70;93.50
21944;DHT22;11136;48.778;9.126;2023-03-05T15:23:05;6.70;93.50
21944;DHT22;11136;48.778;9.126;2023-03-05T15:25:31;6.70;93.50
21944;DHT22;11136;48.778;9.126;2023-03-05T15:27:56;6.70;93.60
21944;DHT22;11136;48.778;9.126;2023-03-05T15:30:27;6.70;93.60
21944;DHT22;11136;48.778;9.126;2023-03-05T15:32:54;6.70;93.60
21944;DHT22;11136;48.778;9.126;2023-03-05T15:35:21;6.70;93.60
21944;DHT22;11136;48.778;9.126;2023-03-05T15:37:47;6.70;93.90
21944;DHT22;11136;48.778;9.126;2023-03-05T15:40:12;6.60;93.60
21944;DHT22;11136;48.778;9.126;2023-03-05T15:42:38;6.60;93.70
21944;DHT22;11136;48.778;9.126;2023-03-05T15:45:04;6.60;93.70
21944;DHT22;11136;48.778;9.126;2023-03-05T15:47:30;6.60;93.70
21944;DHT22;11136;48.778;9.126;2023-03-05T15:49:56;6.60;93.80
21944;DHT22;11136;48.778;9.126;2023-03-05T15:52:21;6.60;93.80
21944;DHT22;11136;48.778;9.126;2023-03-05T15:54:47;6.60;93.80
21944;DHT22;11136;48.778;9.126;2023-03-05T15:57:13;6.60;93.90
21944;DHT22;11136;48.778;9.126;2023-03-05T15:59:38;6.60;93.90
21944;DHT22;11136;48.778;9.126;2023-03-05T16:02:04;6.60;94.30
21944;DHT22;11136;48.778;9.126;2023-03-05T16:04:30;6.50;93.90
21944;DHT22;11136;48.778;9.126;2023-03-05T16:06:58;6.60;93.90
21944;DHT22;11136;48.778;9.126;2023-03-05T16:09:27;6.50;93.80
21944;DHT22;11136;48.778;9.126;2023-03-05T16:11:54;6.50;93.80
21944;DHT22;11136;48.778;9.126;2023-03-05T16:14:21;6.50;93.70
21944;DHT22;11136;48.778;9.126;2023-03-05T16:16:49;6.50;93.70
21944;DHT22;11136;48.778;9.126;2023-03-05T16:19:17;6.60;93.70
21944;DHT22;11136;48.778;9.126;2023-03-05T16:21:44;6.50;93.60
21944;DHT22;11136;48.778;9.126;2023-03-05T16:24:10;6.50;93.60
21944;DHT22;11136;48.778;9.126;2023-03-05T16:26:36;6.50;93.60
21944;DHT22;11136;48.778;9.126;2023-03-05T16:29:03;6.50;93.60
21944;DHT22;11136;48.778;9.126;2023-03-05T16:31:32;6.50;93.60
21944;DHT22;11136;48.778;9.126;2023-03-05T16:33:59;6.50;93.50
21944;DHT22;11136;48.778;9.126;2023-03-05T16:36:27;6.50;93.40
21944;DHT22;11136;48.778;9.126;2023-03-05T16:38:55;6.50;93.40
21944;DHT22;11136;48.778;9.126;2023-03-05T16:41:21;6.50;93.40
21944;DHT22;11136;48.778;9.126;2023-03-05T16:43:48;6.50;93.40
21944;DHT22;11136;48.778;9.126;2023-03-05T16:46:14;6.40;93.30
21944;DHT22;11136;48.778;9.126;2023-03-05T16:48:44;6.50;93.30
21944;DHT22;11136;48.778;9.126;2023-03-05T16:51:10;6.40;93.30
21944;DHT22;11136;48.778;9.126;2023-03-05T16:53:37;6.40;93.30
21944;DHT22;11136;48.778;9.126;2023-03-05T16:56:05;6.40;93.30
21944;DHT22;11136;48.778;9.126;2023-03-05T16:58:31;6.40;93.30
21944;DHT22;11136;48.778;9.126;2023-03-05T17:00:58;6.40;93.30